createdAt,value
2023-02-19T00:03:06.669Z,9.40
2023-02-19T00:07:06.612Z,9.35
2023-02-19T00:11:10.874Z,9.31
2023-02-19T00:15:06.865Z,9.27
2023-02-19T00:19:11.046Z,9.24
2023-02-19T00:31:08.618Z,9.26
2023-02-19T00:35:06.898Z,9.29
2023-02-19T00:39:07.926Z,9.30
2023-02-19T00:43:06.702Z,9.32
2023-02-19T00:51:06.817Z,9.35
2023-02-19T00:59:06.877Z,9.33
2023-02-19T01:07:07.950Z,9.34
2023-02-19T01:11:08.759Z,9.33
2023-02-19T01:15:07.466Z,9.32
2023-02-19T01:19:06.904Z,9.33
2023-02-19T01:31:12.178Z,9.32
2023-02-19T01:35:07.441Z,9.29
2023-02-19T01:39:07.201Z,9.26
2023-02-19T01:43:13.958Z,9.22
2023-02-19T01:47:07.202Z,9.19
2023-02-19T01:51:12.266Z,9.16
2023-02-19T01:55:11.819Z,9.10
2023-02-19T01:59:07.495Z,9.08
2023-02-19T02:07:17.087Z,9.03
2023-02-19T02:11:07.089Z,8.98
2023-02-19T02:15:08.169Z,8.97
2023-02-19T02:19:27.052Z,8.94
2023-02-19T02:23:15.882Z,8.93
2023-02-19T02:27:20.586Z,8.89
2023-02-19T02:31:10.699Z,8.82
2023-02-19T02:35:10.371Z,8.76
2023-02-19T02:39:11.425Z,8.75
2023-02-19T02:43:07.068Z,8.78
2023-02-19T02:47:19.389Z,8.79
2023-02-19T02:51:15.065Z,8.80
2023-02-19T02:59:10.341Z,8.78
2023-02-19T03:03:07.384Z,8.75
2023-02-19T03:07:09.615Z,8.73
2023-02-19T03:15:19.582Z,8.71
2023-02-19T03:19:20.512Z,8.69
2023-02-19T03:23:08.908Z,8.68
2023-02-19T03:27:10.896Z,8.64
2023-02-19T03:31:09.951Z,8.59
2023-02-19T03:35:12.672Z,8.58
2023-02-19T03:39:09.921Z,8.57
2023-02-19T03:43:16.857Z,8.54
2023-02-19T03:47:16.690Z,8.49
2023-02-19T03:51:15.582Z,8.44
2023-02-19T03:55:11.680Z,8.43
2023-02-19T04:07:07.447Z,8.46
2023-02-19T04:11:09.109Z,8.48
2023-02-19T04:15:11.031Z,8.49
2023-02-19T04:19:10.682Z,8.47
2023-02-19T04:23:08.098Z,8.45
2023-02-19T04:27:08.314Z,8.44
2023-02-19T04:31:08.060Z,8.40
2023-02-19T04:35:07.701Z,8.37
2023-02-19T04:39:07.774Z,8.33
2023-02-19T04:43:07.369Z,8.29
2023-02-19T04:47:07.543Z,8.26
2023-02-19T04:51:08.244Z,8.27
2023-02-19T04:55:08.447Z,8.28
2023-02-19T04:59:07.330Z,8.29
2023-02-19T05:03:07.586Z,8.28
2023-02-19T05:07:07.637Z,8.30
2023-02-19T05:11:09.938Z,8.31
2023-02-19T05:15:07.533Z,8.30
2023-02-19T05:19:09.891Z,8.29
2023-02-19T05:23:07.425Z,8.25
2023-02-19T05:27:07.711Z,8.20
2023-02-19T05:31:08.781Z,8.18
2023-02-19T05:35:07.800Z,8.17
2023-02-19T05:39:11.322Z,8.15
2023-02-19T05:47:07.689Z,8.09
2023-02-19T05:51:10.138Z,8.10
2023-02-19T05:59:15.244Z,8.07
2023-02-19T06:03:07.608Z,8.02
2023-02-19T06:07:07.885Z,8.03
2023-02-19T06:15:07.878Z,8.02
2023-02-19T06:19:08.181Z,8.00
2023-02-19T06:23:07.737Z,7.97
2023-02-19T06:35:07.939Z,7.96
2023-02-19T06:39:09.284Z,7.97
2023-02-19T06:43:07.821Z,7.94
2023-02-19T06:47:07.895Z,7.92
2023-02-19T06:51:11.534Z,7.89
2023-02-19T06:55:08.347Z,7.85
2023-02-19T06:59:10.516Z,7.86
2023-02-19T07:03:08.535Z,7.82
2023-02-19T07:07:10.178Z,7.79
2023-02-19T07:15:08.552Z,7.80
2023-02-19T07:19:10.292Z,7.79
2023-02-19T07:23:07.979Z,7.81
2023-02-19T07:31:08.397Z,7.79
2023-02-19T07:35:07.792Z,7.72
2023-02-19T07:39:12.433Z,7.70
2023-02-19T07:47:07.993Z,7.66
2023-02-19T07:51:11.300Z,7.61
2023-02-19T07:55:07.898Z,7.58
2023-02-19T07:59:07.980Z,7.55
2023-02-19T08:03:08.254Z,7.56
2023-02-19T08:07:07.860Z,7.57
2023-02-19T08:11:18.892Z,7.59
2023-02-19T08:15:08.136Z,7.56
2023-02-19T08:19:08.070Z,7.57
2023-02-19T08:23:08.581Z,7.58
2023-02-19T08:27:07.986Z,7.60
2023-02-19T08:31:10.890Z,7.59
2023-02-19T08:39:08.024Z,7.57
2023-02-19T08:47:08.281Z,7.55
2023-02-19T08:51:10.496Z,7.54
2023-02-19T08:55:08.191Z,7.53
2023-02-19T08:59:08.244Z,7.56
2023-02-19T09:07:10.169Z,7.58
2023-02-19T09:11:08.060Z,7.62
2023-02-19T09:15:08.938Z,7.63
2023-02-19T09:19:08.331Z,7.67
2023-02-19T09:23:08.197Z,7.69
2023-02-19T09:27:09.506Z,7.72
2023-02-19T09:31:10.601Z,7.75
2023-02-19T09:35:08.145Z,7.81
2023-02-19T09:39:11.448Z,7.86
2023-02-19T09:43:14.239Z,7.89
2023-02-19T09:47:15.919Z,7.91
2023-02-19T09:51:10.081Z,7.94
2023-02-19T09:55:14.590Z,7.95
2023-02-19T09:59:18.597Z,7.98
2023-02-19T10:03:18.486Z,8.02
2023-02-19T10:07:10.895Z,8.09
2023-02-19T10:11:11.660Z,8.17
2023-02-19T10:15:15.021Z,8.22
2023-02-19T10:19:09.590Z,8.27
2023-02-19T10:23:13.327Z,8.31
2023-02-19T10:27:12.375Z,8.38
2023-02-19T10:31:16.110Z,8.42
2023-02-19T10:35:11.709Z,8.45
2023-02-19T10:39:28.141Z,8.48
2023-02-19T10:43:21.478Z,8.49
2023-02-19T10:47:15.344Z,8.53
2023-02-19T10:51:12.287Z,8.55
2023-02-19T10:55:23.473Z,8.59
2023-02-19T10:59:20.064Z,8.64
2023-02-19T11:03:19.049Z,8.70
2023-02-19T11:07:09.418Z,8.75
2023-02-19T11:11:08.826Z,8.81
2023-02-19T11:15:20.945Z,8.87
2023-02-19T11:19:22.597Z,8.93
2023-02-19T11:23:14.701Z,8.96
2023-02-19T11:31:18.787Z,8.98
2023-02-19T11:35:21.549Z,9.04
2023-02-19T11:39:20.386Z,9.07
2023-02-19T11:43:19.334Z,9.13
2023-02-19T11:47:28.364Z,9.19
2023-02-19T11:51:22.593Z,9.29
2023-02-19T11:55:17.626Z,9.34
2023-02-19T11:59:16.589Z,9.43
2023-02-19T12:03:23.926Z,9.52
2023-02-19T12:07:23.067Z,9.57
2023-02-19T12:11:25.765Z,9.68
2023-02-19T12:15:21.542Z,9.72
2023-02-19T12:19:17.551Z,9.75
2023-02-19T12:23:28.359Z,9.76
2023-02-19T12:31:27.527Z,9.73
2023-02-19T12:35:22.895Z,9.74
2023-02-19T12:39:17.114Z,9.73
2023-02-19T12:43:15.793Z,9.77
2023-02-19T12:47:17.259Z,9.82
2023-02-19T12:51:21.589Z,9.84
2023-02-19T12:55:18.436Z,9.85
2023-02-19T12:59:14.373Z,9.90
2023-02-19T13:03:19.939Z,9.96
2023-02-19T13:07:15.823Z,10.02
2023-02-19T13:11:14.574Z,10.03
2023-02-19T13:15:17.494Z,10.06
2023-02-19T13:19:10.592Z,10.04
2023-02-19T13:23:25.113Z,9.97
2023-02-19T13:27:27.427Z,9.92
2023-02-19T13:31:25.638Z,9.97
2023-02-19T13:35:23.072Z,10.07
2023-02-19T13:43:22.854Z,10.23
2023-02-19T13:47:28.672Z,10.26
2023-02-19T13:51:28.632Z,10.34
2023-02-19T13:55:28.625Z,10.40
2023-02-19T13:59:24.066Z,10.44
2023-02-19T14:03:27.012Z,10.49
2023-02-19T14:07:20.392Z,10.58
2023-02-19T14:11:13.437Z,10.62
2023-02-19T14:15:28.790Z,10.65
2023-02-19T14:19:13.091Z,10.68
2023-02-19T14:23:15.831Z,10.70
2023-02-19T14:27:09.930Z,10.71
2023-02-19T14:31:18.104Z,10.77
2023-02-19T14:35:17.814Z,10.83
2023-02-19T14:39:12.823Z,10.88
2023-02-19T14:43:13.365Z,10.93
2023-02-19T14:47:14.333Z,10.98
2023-02-19T14:51:18.467Z,11.05
2023-02-19T14:55:17.819Z,11.09
2023-02-19T14:59:25.887Z,11.11
2023-02-19T15:03:24.578Z,11.15
2023-02-19T15:07:14.395Z,11.21
2023-02-19T15:11:15.402Z,11.24
2023-02-19T15:15:17.363Z,11.27
2023-02-19T15:19:11.771Z,11.33
2023-02-19T15:23:18.066Z,11.42
2023-02-19T15:27:16.904Z,11.54
2023-02-19T15:31:14.186Z,11.64
2023-02-19T15:35:18.490Z,11.72
2023-02-19T15:39:18.221Z,11.79
2023-02-19T15:43:22.064Z,11.83
2023-02-19T15:47:17.678Z,11.88
2023-02-19T15:51:15.124Z,11.93
2023-02-19T15:55:20.829Z,12.07
2023-02-19T15:59:19.651Z,12.18
2023-02-19T16:03:17.225Z,12.28
2023-02-19T16:07:22.851Z,12.39
2023-02-19T16:11:26.556Z,12.52
2023-02-19T16:15:13.735Z,12.63
2023-02-19T16:19:09.407Z,12.73
2023-02-19T16:23:13.297Z,12.78
2023-02-19T16:27:09.324Z,12.79
2023-02-19T16:31:11.820Z,12.76
2023-02-19T16:35:29.070Z,12.82
2023-02-19T16:39:17.046Z,12.94
2023-02-19T16:43:29.470Z,13.01
2023-02-19T16:47:19.368Z,13.05
2023-02-19T16:51:16.230Z,13.08
2023-02-19T16:55:12.461Z,13.09
2023-02-19T16:59:09.325Z,13.05
2023-02-19T17:03:12.745Z,12.95
2023-02-19T17:07:13.254Z,12.67
2023-02-19T17:11:12.564Z,12.35
2023-02-19T17:15:11.257Z,12.07
2023-02-19T17:19:12.398Z,11.84
2023-02-19T17:23:09.424Z,11.65
2023-02-19T17:27:10.785Z,11.52
2023-02-19T17:31:10.933Z,11.37
2023-02-19T17:35:09.588Z,11.22
2023-02-19T17:39:14.180Z,11.10
2023-02-19T17:43:09.565Z,11.02
2023-02-19T17:47:09.459Z,10.89
2023-02-19T17:51:10.112Z,10.80
2023-02-19T17:55:12.110Z,10.71
2023-02-19T17:59:09.909Z,10.63
2023-02-19T18:03:09.855Z,10.57
2023-02-19T18:07:09.636Z,10.50
2023-02-19T18:11:09.766Z,10.44
2023-02-19T18:15:14.380Z,10.37
2023-02-19T18:19:09.568Z,10.32
2023-02-19T18:23:09.922Z,10.28
2023-02-19T18:27:09.635Z,10.24
2023-02-19T18:31:10.259Z,10.19
2023-02-19T18:35:10.437Z,10.13
2023-02-19T18:39:09.971Z,10.08
2023-02-19T18:43:09.909Z,10.00
2023-02-19T18:47:10.499Z,9.93
2023-02-19T18:51:10.588Z,9.88
2023-02-19T18:55:10.403Z,9.82
2023-02-19T18:59:10.346Z,9.75
2023-02-19T19:03:10.126Z,9.68
2023-02-19T19:07:09.885Z,9.64
2023-02-19T19:11:10.314Z,9.55
2023-02-19T19:15:09.706Z,9.46
2023-02-19T19:19:10.564Z,9.42
2023-02-19T19:23:09.754Z,9.37
2023-02-19T19:27:10.118Z,9.38
2023-02-19T19:31:11.076Z,9.43
2023-02-19T19:35:10.016Z,9.39
2023-02-19T19:39:09.866Z,9.40
2023-02-19T19:43:09.914Z,9.42
2023-02-19T19:47:09.984Z,9.37
2023-02-19T19:51:10.844Z,9.23
2023-02-19T19:55:10.971Z,9.11
2023-02-19T19:59:10.288Z,9.04
2023-02-19T20:03:09.872Z,8.99
2023-02-19T20:07:10.136Z,8.95
2023-02-19T20:11:10.207Z,8.88
2023-02-19T20:15:10.493Z,8.77
2023-02-19T20:19:10.246Z,8.70
2023-02-19T20:27:09.989Z,8.62
2023-02-19T20:31:10.680Z,8.54
2023-02-19T20:35:10.180Z,8.45
2023-02-19T20:39:10.019Z,8.39
2023-02-19T20:43:10.125Z,8.41
2023-02-19T20:47:10.258Z,8.43
2023-02-19T20:51:10.221Z,8.47
2023-02-19T20:55:10.270Z,8.45
2023-02-19T20:59:10.725Z,8.43
2023-02-19T21:03:10.665Z,8.37
2023-02-19T21:07:10.274Z,8.26
2023-02-19T21:11:11.068Z,8.22
2023-02-19T21:15:10.377Z,8.20
2023-02-19T21:19:10.195Z,8.19
2023-02-19T21:23:10.266Z,8.16
2023-02-19T21:27:10.075Z,8.15
2023-02-19T21:31:10.475Z,8.14
2023-02-19T21:39:12.835Z,8.13
2023-02-19T21:43:11.746Z,8.12
2023-02-19T21:47:10.681Z,8.07
2023-02-19T21:55:10.303Z,7.99
2023-02-19T21:59:10.530Z,7.95
2023-02-19T22:03:13.923Z,7.89
2023-02-19T22:07:10.188Z,7.88
2023-02-19T22:11:10.578Z,7.85
2023-02-19T22:15:10.163Z,7.81
2023-02-19T22:19:11.867Z,7.77
2023-02-19T22:23:10.331Z,7.72
2023-02-19T22:27:10.346Z,7.69
2023-02-19T22:31:10.252Z,7.67
2023-02-19T22:35:10.698Z,7.63
2023-02-19T22:39:15.774Z,7.50
2023-02-19T22:43:10.479Z,7.37
2023-02-19T22:47:10.317Z,7.35
2023-02-19T22:51:12.201Z,7.29
2023-02-19T22:55:10.877Z,7.22
2023-02-19T22:59:10.502Z,7.16
2023-02-19T23:03:10.352Z,7.08
2023-02-19T23:07:10.540Z,7.03
2023-02-19T23:15:11.031Z,7.05
2023-02-19T23:19:14.874Z,7.04
2023-02-19T23:23:10.364Z,7.00
2023-02-19T23:27:10.405Z,6.91
2023-02-19T23:31:11.571Z,6.90
2023-02-19T23:35:10.713Z,6.83
2023-02-19T23:39:13.040Z,6.78
2023-02-19T23:43:10.436Z,6.77
2023-02-19T23:47:10.589Z,6.72
2023-02-19T23:51:10.726Z,6.69
2023-02-19T23:55:10.601Z,6.64
2023-02-19T23:59:11.219Z,6.55
